Time;durP1;ratioP1;P1;durP2;ratioP2;P2;SDS_P1;SDS_P2;PMS_P1;PMS_P2;Temp;Humidity;BMP_temperature;BMP_pressure;BME280_temperature;BME280_humidity;BME280_pressure;Samples;Min_cycle;Max_cycle;Signal;HPM_P1;HPM_P2
2022/09/02 00:00:07;;;;;;;0.70;0.60;;;23.70;99.90;;;;;;1035115;28;20603;-69
2022/09/02 00:00:43;;;;;;;1.02;0.80;;;23.70;99.90;;;;;;1039316;28;20022;-69
2022/09/02 00:01:22;;;;;;;1.13;0.60;;;23.70;99.90;;;;;;1042781;28;20029;-69
2022/09/02 00:01:53;;;;;;;2.22;0.70;;;23.70;99.90;;;;;;1042904;28;20048;-69
2022/09/02 00:02:24;;;;;;;0.80;0.60;;;23.70;99.90;;;;;;1038483;28;20028;-69
2022/09/02 00:02:54;;;;;;;0.80;0.60;;;23.70;99.90;;;;;;1038835;28;20293;-69
2022/09/02 00:03:27;;;;;;;0.80;0.60;;;23.60;99.90;;;;;;1035044;28;20026;-69
2022/09/02 00:04:05;;;;;;;1.73;0.70;;;23.60;99.90;;;;;;1039234;28;20567;-69
2022/09/02 00:04:35;;;;;;;;;;;23.60;99.90;;;;;;1039180;28;20399;-69
2022/09/02 00:05:06;;;;;;;1.00;0.57;;;23.60;99.90;;;;;;1039676;28;20405;-69
2022/09/02 00:05:37;;;;;;;0.57;0.50;;;23.60;99.90;;;;;;1042059;28;20021;-69
2022/09/02 00:06:09;;;;;;;2.20;0.60;;;23.50;99.90;;;;;;1038676;28;20048;-69
2022/09/02 00:06:41;;;;;;;1.00;0.75;;;23.50;99.90;;;;;;1038630;28;20018;-69
2022/09/02 00:07:11;;;;;;;0.63;0.60;;;23.60;99.90;;;;;;1038898;28;20013;-70
2022/09/02 00:07:42;;;;;;;0.63;0.53;;;23.50;99.90;;;;;;1042160;28;20025;-70
2022/09/02 00:08:12;;;;;;;0.67;0.50;;;23.50;99.90;;;;;;1042907;28;20091;-69
2022/09/02 00:08:44;;;;;;;1.13;0.90;;;23.50;99.90;;;;;;1042758;28;20029;-70
2022/09/02 00:09:17;;;;;;;0.45;0.45;;;23.50;99.90;;;;;;1042792;28;20020;-69
2022/09/02 00:09:48;;;;;;;1.13;0.70;;;23.50;99.90;;;;;;1042791;28;20067;-70
2022/09/02 00:10:18;;;;;;;0.47;0.40;;;23.50;99.90;;;;;;1043312;28;20025;-69
2022/09/02 00:10:49;;;;;;;1.03;0.60;;;23.50;99.90;;;;;;1042396;28;20646;-70
2022/09/02 00:11:23;;;;;;;0.90;0.73;;;23.60;99.90;;;;;;1043078;28;20166;-70
2022/09/02 00:11:55;;;;;;;0.65;0.50;;;23.50;99.90;;;;;;1042643;28;20158;-70
2022/09/02 00:12:25;;;;;;;0.70;0.40;;;23.50;99.90;;;;;;1042914;28;20017;-70
2022/09/02 00:12:56;;;;;;;0.50;0.50;;;23.50;99.90;;;;;;1043034;28;20021;-69
2022/09/02 00:13:28;;;;;;;0.80;0.70;;;23.50;99.90;;;;;;1043143;28;20562;-70
2022/09/02 00:14:02;;;;;;;0.82;0.77;;;23.50;99.90;;;;;;1042984;28;20511;-69
2022/09/02 00:14:36;;;;;;;1.20;0.50;;;23.50;99.90;;;;;;1043202;28;20154;-70
2022/09/02 00:15:07;;;;;;;0.80;0.80;;;23.50;99.90;;;;;;1042898;28;20021;-70
2022/09/02 00:15:38;;;;;;;0.55;0.55;;;23.50;99.90;;;;;;1043251;28;20072;-69
2022/09/02 00:16:10;;;;;;;1.95;0.50;;;23.50;99.90;;;;;;1042848;28;20021;-69
2022/09/02 00:16:41;;;;;;;1.40;0.85;;;23.50;99.90;;;;;;1043341;28;20091;-69
2022/09/02 00:17:11;;;;;;;1.02;0.60;;;23.50;99.90;;;;;;1043057;28;20028;-69
2022/09/02 00:17:42;;;;;;;0.60;0.60;;;23.50;99.90;;;;;;1043089;28;20096;-69
2022/09/02 00:18:14;;;;;;;0.77;0.60;;;23.50;99.90;;;;;;1042979;28;20075;-69
2022/09/02 00:18:47;;;;;;;0.40;0.40;;;23.50;99.90;;;;;;1043057;28;20025;-69
2022/09/02 00:19:20;;;;;;;0.60;0.60;;;23.50;99.90;;;;;;1043063;28;20104;-69
2022/09/02 00:19:53;;;;;;;1.05;0.70;;;23.50;99.90;;;;;;1042807;28;20450;-69
2022/09/02 00:20:23;;;;;;;1.15;0.57;;;23.50;99.90;;;;;;1042758;28;20020;-69
2022/09/02 00:20:54;;;;;;;0.80;0.60;;;23.50;99.90;;;;;;1042591;28;20100;-68
2022/09/02 00:21:26;;;;;;;0.60;0.50;;;23.50;99.90;;;;;;1042745;28;20074;-69
2022/09/02 00:21:58;;;;;;;1.20;0.50;;;23.50;99.90;;;;;;1043217;28;20096;-68
2022/09/02 00:22:29;;;;;;;0.52;0.52;;;23.50;99.90;;;;;;1042678;28;20017;-69
2022/09/02 00:22:59;;;;;;;0.87;0.60;;;23.50;99.90;;;;;;1042616;28;20103;-69
2022/09/02 00:23:30;;;;;;;0.40;0.40;;;23.50;99.90;;;;;;1042711;28;20013;-68
2022/09/02 00:24:03;;;;;;;1.00;0.50;;;23.50;99.90;;;;;;1043798;28;20013;-70
2022/09/02 00:24:33;;;;;;;0.85;0.52;;;23.50;99.90;;;;;;1043101;28;20017;-71
2022/09/02 00:25:04;;;;;;;0.50;0.50;;;23.50;99.90;;;;;;1042997;28;20029;-71
2022/09/02 00:25:36;;;;;;;2.55;0.57;;;23.60;99.90;;;;;;1043242;28;20055;-71
2022/09/02 00:26:07;;;;;;;0.80;0.63;;;23.60;99.90;;;;;;1043030;28;20041;-70
2022/09/02 00:26:38;;;;;;;1.07;0.60;;;23.60;99.90;;;;;;1038917;28;20018;-71
2022/09/02 00:27:08;;;;;;;1.43;0.80;;;23.60;99.90;;;;;;1038832;28;20017;-70
2022/09/02 00:27:39;;;;;;;0.50;0.50;;;23.60;99.90;;;;;;1039009;28;20013;-70
2022/09/02 00:28:11;;;;;;;0.57;0.50;;;23.60;99.90;;;;;;1039045;28;20099;-70
2022/09/02 00:28:42;;;;;;;0.50;0.40;;;23.60;99.90;;;;;;1038543;28;20044;-70
2022/09/02 00:29:14;;;;;;;1.48;0.50;;;23.60;99.90;;;;;;1039204;28;20061;-69
2022/09/02 00:29:45;;;;;;;0.65;0.60;;;23.60;99.90;;;;;;1039112;28;20412;-69
2022/09/02 00:30:16;;;;;;;0.50;0.43;;;23.50;99.90;;;;;;1042836;28;20407;-69
2022/09/02 00:30:46;;;;;;;0.82;0.60;;;23.60;99.90;;;;;;1042611;28;20024;-69
2022/09/02 00:31:18;;;;;;;0.43;0.40;;;23.50;99.90;;;;;;1038523;28;20030;-69
2022/09/02 00:31:48;;;;;;;0.82;0.50;;;23.60;99.90;;;;;;1038598;28;20056;-69
2022/09/02 00:32:19;;;;;;;0.70;0.60;;;23.60;99.90;;;;;;1042942;28;20035;-69
2022/09/02 00:32:49;;;;;;;1.73;0.80;;;23.60;99.90;;;;;;1042442;28;20021;-69
2022/09/02 00:33:20;;;;;;;0.50;0.50;;;23.60;99.90;;;;;;1042874;28;20824;-69
2022/09/02 00:33:50;;;;;;;0.50;0.50;;;23.60;99.90;;;;;;1042580;28;20056;-69
2022/09/02 00:34:21;;;;;;;0.57;0.40;;;23.60;99.90;;;;;;1042867;28;20507;-70
2022/09/02 00:34:52;;;;;;;0.52;0.50;;;23.50;99.90;;;;;;1042529;28;20025;-68
2022/09/02 00:35:23;;;;;;;0.60;0.50;;;23.60;99.90;;;;;;1043241;28;20025;-70
2022/09/02 00:35:53;;;;;;;0.40;0.40;;;23.50;99.90;;;;;;1042592;28;20020;-70
2022/09/02 00:36:24;;;;;;;0.40;0.40;;;23.60;99.90;;;;;;1042827;28;20391;-69
2022/09/02 00:36:55;;;;;;;1.15;0.63;;;23.50;99.90;;;;;;1042570;28;20051;-68
2022/09/02 00:37:26;;;;;;;0.77;0.50;;;23.50;99.90;;;;;;1042955;28;20056;-68
2022/09/02 00:37:57;;;;;;;0.82;0.65;;;23.50;99.90;;;;;;1042406;28;20025;-68
2022/09/02 00:38:28;;;;;;;0.93;0.53;;;23.50;99.90;;;;;;1042831;28;20016;-68
2022/09/02 00:38:59;;;;;;;0.95;0.60;;;23.50;99.90;;;;;;1042522;28;20058;-69
2022/09/02 00:39:30;;;;;;;1.17;0.70;;;23.50;99.90;;;;;;1042975;28;20016;-69
2022/09/02 00:40:01;;;;;;;0.90;0.60;;;23.50;99.90;;;;;;1042696;28;20698;-69
2022/09/02 00:40:33;;;;;;;0.50;0.40;;;23.50;99.90;;;;;;1043339;28;20021;-69
2022/09/02 00:41:07;;;;;;;0.60;0.50;;;23.50;99.90;;;;;;1042600;28;20423;-69
2022/09/02 00:41:40;;;;;;;2.05;0.55;;;23.50;99.90;;;;;;1042838;28;20021;-69
2022/09/02 00:42:10;;;;;;;1.30;0.52;;;23.50;99.90;;;;;;1041942;28;20055;-69
2022/09/02 00:42:41;;;;;;;1.23;0.50;;;23.50;99.90;;;;;;1042565;28;20017;-69
2022/09/02 00:43:25;;;;;;;1.60;0.80;;;23.50;99.90;;;;;;1042424;28;20314;-69
2022/09/02 00:44:00;;;;;;;1.15;0.57;;;23.50;99.90;;;;;;1042667;28;20045;-68
2022/09/02 00:44:32;;;;;;;1.17;0.60;;;23.40;99.90;;;;;;1042795;28;20047;-69
2022/09/02 00:45:05;;;;;;;1.00;0.50;;;23.40;99.90;;;;;;1042015;28;20713;-70
2022/09/02 00:45:36;;;;;;;0.85;0.60;;;23.40;99.90;;;;;;1042464;28;20500;-69
2022/09/02 00:46:08;;;;;;;1.02;0.70;;;23.40;99.90;;;;;;1042685;28;20775;-69
2022/09/02 00:46:39;;;;;;;0.70;0.40;;;23.40;99.90;;;;;;1042316;28;20713;-69
2022/09/02 00:47:10;;;;;;;0.55;0.50;;;23.40;99.90;;;;;;1042759;28;20059;-69
2022/09/02 00:47:40;;;;;;;2.83;0.70;;;23.40;99.90;;;;;;1042843;28;20190;-70
2022/09/02 00:48:11;;;;;;;2.07;0.60;;;23.40;99.90;;;;;;1043126;28;20021;-70
2022/09/02 00:49:01;;;;;;;0.50;0.47;;;23.40;99.90;;;;;;1042841;28;20044;-69
2022/09/02 00:49:37;;;;;;;0.70;0.50;;;23.40;99.90;;;;;;1042299;28;20101;-69
2022/09/02 00:50:10;;;;;;;0.90;0.63;;;23.40;99.90;;;;;;1042369;28;20021;-68
2022/09/02 00:50:40;;;;;;;0.57;0.50;;;23.40;99.90;;;;;;1042511;28;20025;-69
2022/09/02 00:51:12;;;;;;;0.90;0.80;;;23.40;99.90;;;;;;1042717;28;20120;-69
2022/09/02 00:51:47;;;;;;;0.57;0.50;;;23.40;99.90;;;;;;1042399;28;20488;-69
2022/09/02 00:52:32;;;;;;;0.73;0.50;;;23.30;99.90;;;;;;1042771;28;20024;-69
2022/09/02 00:53:08;;;;;;;0.75;0.60;;;23.40;99.90;;;;;;1042534;28;20013;-69
2022/09/02 00:53:41;;;;;;;0.52;0.50;;;23.30;99.90;;;;;;1042819;28;20041;-69
2022/09/02 00:54:16;;;;;;;0.50;0.50;;;23.30;99.90;;;;;;1042761;28;20036;-69
2022/09/02 00:54:51;;;;;;;0.70;0.60;;;23.30;99.90;;;;;;1042546;28;20146;-69
2022/09/02 00:55:28;;;;;;;0.95;0.70;;;23.30;99.90;;;;;;1042739;28;20066;-69
2022/09/02 00:56:00;;;;;;;0.85;0.73;;;23.30;99.90;;;;;;1042364;28;20408;-69
2022/09/02 00:56:31;;;;;;;0.50;0.50;;;23.30;99.90;;;;;;1038806;28;20123;-69
2022/09/02 00:57:08;;;;;;;0.80;0.80;;;23.30;99.90;;;;;;1038063;28;20557;-69
2022/09/02 00:57:44;;;;;;;1.10;0.70;;;23.30;99.90;;;;;;1039977;28;20021;-69
2022/09/02 00:58:26;;;;;;;0.40;0.40;;;23.30;99.90;;;;;;1042918;28;20016;-70
2022/09/02 00:58:57;;;;;;;0.90;0.70;;;23.30;99.90;;;;;;1038308;28;20026;-69
2022/09/02 01:00:05;;;;;;;0.55;0.55;;;23.30;99.90;;;;;;1038659;28;20039;-69
2022/09/02 01:00:43;;;;;;;0.80;0.60;;;23.30;99.90;;;;;;1038738;28;20539;-69
2022/09/02 01:01:13;;;;;;;0.80;0.80;;;23.30;99.90;;;;;;1038832;28;20044;-68
2022/09/02 01:01:45;;;;;;;0.70;0.50;;;23.30;99.90;;;;;;1039574;28;20045;-69
2022/09/02 01:02:16;;;;;;;0.70;0.60;;;23.30;99.90;;;;;;1042906;28;20029;-69
2022/09/02 01:02:52;;;;;;;1.25;0.85;;;23.30;99.90;;;;;;1043111;28;20108;-69
2022/09/02 01:03:25;;;;;;;0.75;0.63;;;23.30;99.90;;;;;;1042953;28;20082;-69
2022/09/02 01:03:56;;;;;;;2.33;0.52;;;23.30;99.90;;;;;;1042920;28;20021;-68
2022/09/02 01:04:28;;;;;;;0.70;0.57;;;23.30;99.90;;;;;;1042775;28;20013;-69
2022/09/02 01:04:59;;;;;;;0.50;0.47;;;23.30;99.90;;;;;;1042992;28;20111;-69
2022/09/02 01:05:34;;;;;;;1.70;0.80;;;23.30;99.90;;;;;;1042805;28;20388;-68
2022/09/02 01:06:06;;;;;;;0.93;0.50;;;23.30;99.90;;;;;;1038782;28;20025;-69
2022/09/02 01:06:38;;;;;;;0.40;0.40;;;23.30;99.90;;;;;;1039048;28;20017;-68
2022/09/02 01:07:09;;;;;;;0.63;0.50;;;23.30;99.90;;;;;;1038795;28;20052;-69
2022/09/02 01:07:40;;;;;;;0.80;0.60;;;23.30;99.90;;;;;;1042346;28;20020;-70
2022/09/02 01:08:25;;;;;;;1.38;0.60;;;23.30;99.90;;;;;;1042754;28;20025;-69
2022/09/02 01:09:02;;;;;;;0.60;0.60;;;23.30;99.90;;;;;;1042554;28;20024;-69
2022/09/02 01:09:32;;;;;;;0.40;0.40;;;23.40;99.90;;;;;;1042390;28;20495;-69
2022/09/02 01:10:06;;;;;;;0.60;0.47;;;23.40;99.90;;;;;;1042797;28;20575;-70
2022/09/02 01:10:38;;;;;;;0.50;0.50;;;23.40;99.90;;;;;;1043035;28;20024;-69
2022/09/02 01:11:09;;;;;;;0.50;0.50;;;23.40;99.90;;;;;;1042423;28;20025;-70
2022/09/02 01:11:46;;;;;;;0.82;0.60;;;23.40;99.90;;;;;;1038409;28;20129;-69
2022/09/02 01:12:18;;;;;;;0.98;0.80;;;23.30;99.90;;;;;;1038752;28;20018;-69
2022/09/02 01:12:53;;;;;;;0.50;0.47;;;23.30;99.90;;;;;;1038145;28;20021;-69
2022/09/02 01:13:27;;;;;;;0.85;0.60;;;23.30;99.90;;;;;;1038778;28;20022;-69
2022/09/02 01:13:58;;;;;;;1.00;0.77;;;23.30;99.90;;;;;;1038795;28;20411;-70
2022/09/02 01:14:29;;;;;;;0.83;0.60;;;23.30;99.90;;;;;;1042486;28;20456;-70
2022/09/02 01:15:00;;;;;;;0.77;0.50;;;23.30;99.90;;;;;;1042412;28;20486;-69
2022/09/02 01:15:32;;;;;;;0.82;0.63;;;23.30;99.90;;;;;;1042882;28;20078;-70
2022/09/02 01:16:15;;;;;;;1.25;0.63;;;23.20;99.90;;;;;;1042407;28;20067;-69
2022/09/02 01:16:51;;;;;;;2.05;0.50;;;23.30;99.90;;;;;;1042639;28;20411;-69
2022/09/02 01:17:23;;;;;;;0.63;0.60;;;23.20;99.90;;;;;;1043022;28;20041;-69
2022/09/02 01:17:53;;;;;;;0.93;0.50;;;23.20;99.90;;;;;;1042455;28;20443;-68
2022/09/02 01:18:29;;;;;;;0.57;0.53;;;23.20;99.90;;;;;;1038572;28;20679;-69
2022/09/02 01:19:05;;;;;;;1.70;0.63;;;23.20;99.90;;;;;;1038448;28;20018;-69
2022/09/02 01:19:40;;;;;;;0.40;0.40;;;23.20;99.90;;;;;;1042497;28;20112;-69
2022/09/02 01:20:14;;;;;;;0.95;0.63;;;23.20;99.90;;;;;;1042830;28;20013;-68
2022/09/02 01:20:46;;;;;;;0.88;0.57;;;23.20;99.90;;;;;;1042642;28;20025;-68
2022/09/02 01:21:17;;;;;;;1.00;0.80;;;23.20;99.90;;;;;;1042330;28;20047;-69
2022/09/02 01:21:50;;;;;;;0.68;0.68;;;23.20;99.90;;;;;;1042722;28;20028;-69
2022/09/02 01:22:23;;;;;;;0.70;0.60;;;23.20;99.90;;;;;;1042535;28;20025;-69
2022/09/02 01:22:57;;;;;;;0.93;0.50;;;23.20;99.90;;;;;;1043438;28;20090;-69
2022/09/02 01:23:28;;;;;;;1.00;0.47;;;23.20;99.90;;;;;;1046831;28;20017;-69
2022/09/02 01:23:59;;;;;;;1.45;0.75;;;23.20;99.90;;;;;;1042377;28;20447;-68
2022/09/02 01:24:31;;;;;;;1.73;0.80;;;23.20;99.90;;;;;;1042558;28;20704;-68
2022/09/02 01:25:09;;;;;;;1.33;1.17;;;23.20;99.90;;;;;;1042416;28;20013;-68
2022/09/02 01:25:40;;;;;;;0.70;0.50;;;23.10;99.90;;;;;;1041711;28;20021;-69
2022/09/02 01:26:11;;;;;;;1.75;0.50;;;23.10;99.90;;;;;;1042345;28;20024;-69
2022/09/02 01:26:42;;;;;;;0.95;0.60;;;23.10;99.90;;;;;;1042942;28;20013;-69
2022/09/02 01:27:16;;;;;;;0.50;0.50;;;23.10;99.90;;;;;;1042870;28;20021;-68
2022/09/02 01:27:47;;;;;;;0.50;0.40;;;23.10;99.90;;;;;;1040272;28;20507;-68
2022/09/02 01:28:18;;;;;;;1.48;0.75;;;23.10;99.90;;;;;;1042952;28;20049;-68
2022/09/02 01:28:49;;;;;;;3.00;0.50;;;23.10;99.90;;;;;;1042638;28;20037;-68
2022/09/02 01:29:20;;;;;;;0.50;0.50;;;23.10;99.90;;;;;;1042407;28;20352;-68
2022/09/02 01:29:54;;;;;;;0.52;0.52;;;23.10;99.90;;;;;;1042595;28;20029;-69
2022/09/02 01:30:25;;;;;;;0.85;0.65;;;23.10;99.90;;;;;;1038855;28;20028;-69
2022/09/02 01:30:56;;;;;;;0.82;0.60;;;23.10;99.90;;;;;;1042604;28;20025;-69
2022/09/02 01:31:26;;;;;;;0.60;0.60;;;23.10;99.90;;;;;;1042374;28;20436;-69
2022/09/02 01:31:57;;;;;;;0.80;0.60;;;23.10;99.90;;;;;;1042209;28;20591;-69
2022/09/02 01:32:29;;;;;;;1.20;0.70;;;23.10;99.90;;;;;;1042435;28;20063;-69
2022/09/02 01:33:00;;;;;;;1.15;0.95;;;23.10;99.90;;;;;;1042679;28;20048;-69
2022/09/02 01:33:30;;;;;;;0.90;0.70;;;23.10;99.90;;;;;;1042523;28;20055;-69
2022/09/02 01:34:01;;;;;;;0.73;0.70;;;23.10;99.90;;;;;;1042579;28;20062;-68
2022/09/02 01:34:32;;;;;;;0.60;0.60;;;23.10;99.90;;;;;;1042607;28;20017;-69
2022/09/02 01:35:04;;;;;;;0.67;0.60;;;23.10;99.90;;;;;;1042513;28;20472;-69
2022/09/02 01:35:36;;;;;;;0.50;0.45;;;23.10;99.90;;;;;;1038939;28;20022;-69
2022/09/02 01:36:07;;;;;;;0.52;0.45;;;23.10;99.90;;;;;;1038136;28;20022;-69
2022/09/02 01:36:40;;;;;;;0.50;0.50;;;23.10;99.90;;;;;;1038414;28;20426;-68
2022/09/02 01:37:11;;;;;;;0.88;0.60;;;23.10;99.90;;;;;;1039098;28;20010;-69
2022/09/02 01:37:43;;;;;;;0.50;0.40;;;23.10;99.90;;;;;;1040496;28;20644;-69
2022/09/02 01:38:15;;;;;;;0.77;0.70;;;23.10;99.90;;;;;;1042725;28;20032;-69
2022/09/02 01:38:45;;;;;;;0.60;0.47;;;23.10;99.90;;;;;;1043066;28;20029;-68
2022/09/02 01:39:16;;;;;;;0.73;0.60;;;23.10;99.90;;;;;;1045342;28;20023;-68
2022/09/02 01:39:47;;;;;;;0.60;0.60;;;23.10;99.90;;;;;;1042847;28;20111;-68
2022/09/02 01:40:18;;;;;;;0.85;0.60;;;23.10;99.90;;;;;;1042893;28;20032;-69
2022/09/02 01:40:48;;;;;;;0.77;0.63;;;23.00;99.90;;;;;;1042836;28;20036;-69
2022/09/02 01:41:19;;;;;;;1.93;0.70;;;23.10;99.90;;;;;;1042949;28;20083;-69
2022/09/02 01:41:50;;;;;;;0.70;0.67;;;23.10;99.90;;;;;;1042502;28;20020;-68
2022/09/02 01:42:22;;;;;;;0.52;0.50;;;23.10;99.90;;;;;;1042805;28;20029;-68
2022/09/02 01:42:55;;;;;;;0.75;0.45;;;23.10;99.90;;;;;;1042934;28;20108;-68
2022/09/02 01:43:28;;;;;;;0.98;0.60;;;23.10;99.90;;;;;;1042805;28;20032;-68
2022/09/02 01:43:59;;;;;;;0.60;0.52;;;23.00;99.90;;;;;;1042840;28;20437;-68
2022/09/02 01:44:29;;;;;;;0.60;0.60;;;23.00;99.90;;;;;;1042799;28;20468;-68
2022/09/02 01:45:00;;;;;;;0.60;0.57;;;23.00;99.90;;;;;;1042534;28;20553;-68
2022/09/02 01:45:31;;;;;;;0.60;0.57;;;23.00;99.90;;;;;;1042646;28;20068;-68
2022/09/02 01:46:02;;;;;;;1.07;0.60;;;23.00;99.90;;;;;;1042337;28;20079;-68
2022/09/02 01:46:33;;;;;;;0.80;0.43;;;23.00;99.90;;;;;;1042426;28;20029;-70
2022/09/02 01:47:04;;;;;;;0.60;0.55;;;23.00;99.90;;;;;;1038338;28;20056;-69
2022/09/02 01:47:35;;;;;;;0.67;0.50;;;23.00;99.90;;;;;;1038432;28;20017;-68
2022/09/02 01:48:07;;;;;;;1.00;0.60;;;23.10;99.90;;;;;;1038692;28;20098;-69
2022/09/02 01:48:37;;;;;;;0.40;0.40;;;23.10;99.90;;;;;;1042431;28;20021;-69
2022/09/02 01:49:08;;;;;;;1.63;0.63;;;23.10;99.90;;;;;;1043009;28;20020;-68
2022/09/02 01:49:39;;;;;;;1.50;0.57;;;23.10;99.90;;;;;;1042497;28;20032;-69
2022/09/02 01:50:10;;;;;;;0.70;0.47;;;23.10;99.90;;;;;;1042947;28;20071;-69
2022/09/02 01:50:45;;;;;;;0.50;0.50;;;23.10;99.90;;;;;;1042880;28;20067;-69
2022/09/02 01:51:20;;;;;;;1.15;0.60;;;23.00;99.90;;;;;;1042908;28;20028;-69
2022/09/02 01:51:53;;;;;;;0.75;0.60;;;23.10;99.90;;;;;;1042446;28;20040;-69
2022/09/02 01:52:27;;;;;;;1.17;0.57;;;23.10;99.90;;;;;;1042572;28;20024;-68
2022/09/02 01:53:02;;;;;;;1.58;0.63;;;23.10;99.90;;;;;;1042529;28;20491;-68
2022/09/02 01:53:33;;;;;;;0.73;0.55;;;23.10;99.90;;;;;;1042658;28;20025;-68
2022/09/02 01:54:04;;;;;;;0.80;0.43;;;23.10;99.90;;;;;;1042960;28;20021;-69
2022/09/02 01:54:35;;;;;;;1.30;0.60;;;23.10;99.90;;;;;;1042303;28;20020;-70
2022/09/02 01:55:06;;;;;;;0.70;0.60;;;23.00;99.90;;;;;;1042583;28;20112;-68
2022/09/02 01:55:37;;;;;;;0.87;0.50;;;23.00;99.90;;;;;;1042485;28;20029;-69
2022/09/02 01:56:07;;;;;;;0.60;0.60;;;23.10;99.90;;;;;;1042593;28;20108;-69
2022/09/02 01:56:38;;;;;;;0.60;0.50;;;23.00;99.90;;;;;;1042819;28;20029;-69
2022/09/02 01:57:09;;;;;;;1.00;0.57;;;23.00;99.90;;;;;;1043069;28;20017;-69
2022/09/02 01:57:40;;;;;;;0.80;0.50;;;23.00;99.90;;;;;;1043740;28;20531;-69
2022/09/02 01:58:11;;;;;;;1.67;0.50;;;23.00;99.90;;;;;;1043688;28;20518;-69
2022/09/02 01:58:41;;;;;;;0.60;0.50;;;23.00;99.90;;;;;;1043173;28;20049;-69
2022/09/02 01:59:16;;;;;;;0.87;0.40;;;23.00;99.90;;;;;;1043183;28;20052;-69
2022/09/02 01:59:47;;;;;;;1.55;0.60;;;23.00;99.90;;;;;;1042887;28;20314;-69
2022/09/02 02:00:17;;;;;;;0.67;0.40;;;23.00;99.90;;;;;;1043179;28;20108;-68
2022/09/02 02:00:48;;;;;;;0.80;0.60;;;23.00;99.90;;;;;;1043256;28;20044;-69
2022/09/02 02:01:19;;;;;;;1.67;0.60;;;23.00;99.90;;;;;;1043092;28;20017;-69
2022/09/02 02:01:50;;;;;;;1.27;0.90;;;23.00;99.90;;;;;;1043179;28;20029;-68
2022/09/02 02:02:21;;;;;;;0.83;0.60;;;23.00;99.90;;;;;;1043278;28;20084;-69
2022/09/02 02:02:55;;;;;;;2.33;0.70;;;23.00;99.90;;;;;;1043367;28;20127;-69
2022/09/02 02:03:25;;;;;;;0.60;0.60;;;23.00;99.90;;;;;;1043417;28;20017;-68
2022/09/02 02:03:56;;;;;;;0.80;0.63;;;23.00;99.90;;;;;;1043615;28;20533;-69
2022/09/02 02:04:27;;;;;;;1.10;0.70;;;23.00;99.90;;;;;;1043484;28;20027;-68
2022/09/02 02:04:58;;;;;;;0.82;0.65;;;23.00;99.90;;;;;;1043547;28;20082;-68
2022/09/02 02:05:30;;;;;;;1.50;0.60;;;22.90;99.90;;;;;;1043396;28;20027;-69
2022/09/02 02:06:01;;;;;;;0.50;0.50;;;22.90;99.90;;;;;;1043687;28;20738;-69
2022/09/02 02:06:32;;;;;;;0.93;0.60;;;22.90;99.90;;;;;;1042933;28;20017;-68
2022/09/02 02:07:03;;;;;;;0.90;0.73;;;22.90;99.90;;;;;;1043233;28;20039;-68
2022/09/02 02:07:34;;;;;;;2.03;0.70;;;22.90;99.90;;;;;;1043154;28;20013;-69
2022/09/02 02:08:05;;;;;;;2.27;0.80;;;22.90;99.90;;;;;;1043315;28;20021;-69
2022/09/02 02:08:36;;;;;;;0.68;0.60;;;22.90;99.90;;;;;;1042987;28;20017;-69
2022/09/02 02:09:06;;;;;;;0.73;0.60;;;22.90;99.90;;;;;;1043106;28;20043;-69
2022/09/02 02:09:37;;;;;;;1.23;0.70;;;22.90;99.90;;;;;;1043157;28;20035;-69
2022/09/02 02:10:11;;;;;;;1.53;0.60;;;22.80;99.90;;;;;;1043268;28;20100;-69
2022/09/02 02:10:41;;;;;;;0.95;0.70;;;22.90;99.90;;;;;;1043134;28;20028;-69
2022/09/02 02:11:19;;;;;;;0.97;0.70;;;22.90;99.90;;;;;;1043300;28;20028;-69
2022/09/02 02:11:49;;;;;;;0.93;0.52;;;22.90;99.90;;;;;;1042977;28;20021;-69
2022/09/02 02:12:20;;;;;;;0.50;0.50;;;22.90;99.90;;;;;;1043316;28;20080;-69
2022/09/02 02:12:51;;;;;;;0.70;0.60;;;22.90;99.90;;;;;;1042990;28;20033;-68
2022/09/02 02:13:22;;;;;;;2.53;0.77;;;22.90;99.90;;;;;;1041876;28;20017;-68
2022/09/02 02:13:53;;;;;;;0.97;0.50;;;22.90;99.90;;;;;;1039064;28;20044;-68
2022/09/02 02:14:23;;;;;;;1.37;0.60;;;22.90;99.90;;;;;;1039206;28;20500;-68
2022/09/02 02:14:54;;;;;;;1.07;0.60;;;22.90;99.90;;;;;;1040175;28;20678;-69
2022/09/02 02:15:24;;;;;;;1.40;0.63;;;22.80;99.90;;;;;;1043147;28;20013;-70
2022/09/02 02:15:55;;;;;;;2.20;0.80;;;22.80;99.90;;;;;;1043132;28;20537;-70
2022/09/02 02:16:26;;;;;;;1.23;0.77;;;22.80;99.90;;;;;;1039065;28;20063;-69
2022/09/02 02:16:56;;;;;;;2.27;0.60;;;22.80;99.90;;;;;;1039062;28;20021;-70
2022/09/02 02:17:27;;;;;;;0.50;0.50;;;22.80;99.90;;;;;;1043299;28;20028;-70
2022/09/02 02:17:57;;;;;;;0.70;0.50;;;22.80;99.90;;;;;;1043108;28;20075;-69
2022/09/02 02:18:28;;;;;;;1.03;0.87;;;22.80;99.90;;;;;;1043442;28;20143;-69
2022/09/02 02:18:59;;;;;;;1.10;0.70;;;22.80;99.90;;;;;;1043549;28;20070;-69
2022/09/02 02:19:30;;;;;;;0.73;0.57;;;22.80;99.90;;;;;;1044451;28;20597;-69
2022/09/02 02:20:00;;;;;;;1.95;0.40;;;22.80;99.90;;;;;;1046993;28;20021;-69
2022/09/02 02:20:31;;;;;;;1.03;0.70;;;22.80;99.90;;;;;;1043173;28;20036;-69
2022/09/02 02:21:02;;;;;;;0.50;0.50;;;22.80;99.90;;;;;;1038687;28;20104;-68
2022/09/02 02:21:34;;;;;;;1.07;0.80;;;22.80;99.90;;;;;;1035199;28;20519;-69
2022/09/02 02:22:05;;;;;;;0.80;0.60;;;22.80;99.90;;;;;;1038767;28;20020;-69
2022/09/02 02:22:36;;;;;;;1.17;0.63;;;22.80;99.90;;;;;;1035183;28;20033;-69
2022/09/02 02:23:07;;;;;;;0.88;0.57;;;22.80;99.90;;;;;;1038911;28;20096;-69
2022/09/02 02:23:38;;;;;;;1.60;0.60;;;22.80;99.90;;;;;;1038260;28;20106;-68
2022/09/02 02:24:09;;;;;;;0.63;0.63;;;22.80;99.90;;;;;;1038941;28;20045;-68
2022/09/02 02:24:40;;;;;;;0.70;0.70;;;22.80;99.90;;;;;;1039069;28;20025;-69
2022/09/02 02:25:13;;;;;;;0.80;0.67;;;22.80;99.90;;;;;;1039560;28;20013;-69
2022/09/02 02:25:44;;;;;;;1.08;0.60;;;22.80;99.90;;;;;;1043197;28;20359;-69
2022/09/02 02:26:14;;;;;;;0.40;0.40;;;22.80;99.90;;;;;;1043204;28;20016;-69
2022/09/02 02:26:46;;;;;;;0.70;0.70;;;22.80;99.90;;;;;;1043649;28;20044;-69
2022/09/02 02:27:16;;;;;;;0.88;0.60;;;22.80;99.90;;;;;;1043439;28;20166;-69
2022/09/02 02:27:48;;;;;;;0.77;0.50;;;22.80;99.90;;;;;;1043410;28;20021;-70
2022/09/02 02:28:19;;;;;;;0.93;0.50;;;22.80;99.90;;;;;;1043506;28;20021;-69
2022/09/02 02:28:49;;;;;;;0.93;0.63;;;22.80;99.90;;;;;;1043451;28;20035;-68
2022/09/02 02:29:21;;;;;;;0.43;0.43;;;22.80;99.90;;;;;;1043412;28;20023;-69
2022/09/02 02:29:52;;;;;;;1.83;0.60;;;22.90;99.90;;;;;;1043602;28;20021;-69
2022/09/02 02:30:22;;;;;;;0.95;0.50;;;22.90;99.90;;;;;;1043205;28;20021;-68
2022/09/02 02:30:53;;;;;;;0.80;0.60;;;22.90;99.90;;;;;;1043189;28;20020;-69
2022/09/02 02:31:24;;;;;;;1.07;0.73;;;22.90;99.90;;;;;;1042998;28;20095;-68
2022/09/02 02:31:54;;;;;;;1.53;0.70;;;22.90;99.90;;;;;;1043196;28;20259;-68
2022/09/02 02:32:25;;;;;;;0.73;0.47;;;22.90;99.90;;;;;;1038795;28;20028;-69
2022/09/02 02:32:56;;;;;;;0.90;0.60;;;22.90;99.90;;;;;;1039133;28;20660;-69
2022/09/02 02:33:30;;;;;;;0.80;0.50;;;22.90;99.90;;;;;;1039012;28;20107;-69
2022/09/02 02:34:00;;;;;;;1.55;0.77;;;22.90;99.90;;;;;;1042730;28;20139;-69
2022/09/02 02:34:31;;;;;;;0.87;0.50;;;22.90;99.90;;;;;;1047134;28;20081;-69
2022/09/02 02:35:02;;;;;;;0.57;0.53;;;22.90;99.90;;;;;;1047361;28;20020;-70
2022/09/02 02:35:32;;;;;;;0.63;0.60;;;22.90;99.90;;;;;;1046947;28;20036;-69
2022/09/02 02:36:06;;;;;;;2.17;0.67;;;22.90;99.90;;;;;;1039402;28;20598;-69
2022/09/02 02:36:38;;;;;;;0.60;0.55;;;22.90;99.90;;;;;;1038965;28;20487;-69
2022/09/02 02:37:11;;;;;;;0.63;0.52;;;22.90;99.90;;;;;;1038818;28;20083;-69
2022/09/02 02:37:41;;;;;;;1.17;0.60;;;22.90;99.90;;;;;;1042975;28;20587;-68
2022/09/02 02:38:12;;;;;;;0.83;0.50;;;22.90;99.90;;;;;;1043420;28;20558;-68
2022/09/02 02:38:45;;;;;;;1.70;0.67;;;22.90;99.90;;;;;;1043285;28;20036;-69
2022/09/02 02:39:15;;;;;;;0.55;0.52;;;22.80;99.90;;;;;;1043505;28;20049;-68
2022/09/02 02:39:46;;;;;;;1.87;0.67;;;22.80;99.90;;;;;;1043482;28;20017;-68
2022/09/02 02:40:20;;;;;;;1.10;0.60;;;22.80;99.90;;;;;;1043579;28;20025;-69
2022/09/02 02:40:56;;;;;;;0.60;0.50;;;22.80;99.90;;;;;;1043328;28;20098;-68
2022/09/02 02:41:28;;;;;;;0.65;0.60;;;22.80;99.90;;;;;;1043269;28;20492;-69
2022/09/02 02:41:59;;;;;;;0.98;0.65;;;22.80;99.90;;;;;;1043291;28;20082;-68
2022/09/02 02:42:30;;;;;;;2.77;0.60;;;22.80;99.90;;;;;;1041353;28;20094;-68
2022/09/02 02:43:00;;;;;;;0.57;0.57;;;22.80;99.90;;;;;;1039403;28;20018;-68
2022/09/02 02:43:32;;;;;;;0.73;0.60;;;22.80;99.90;;;;;;1039009;28;20786;-68
2022/09/02 02:44:04;;;;;;;2.45;0.73;;;22.80;99.90;;;;;;1039590;28;20020;-68
2022/09/02 02:44:34;;;;;;;1.55;0.95;;;22.80;99.90;;;;;;1043242;28;20025;-67
2022/09/02 02:45:08;;;;;;;0.50;0.50;;;22.80;99.90;;;;;;1043110;28;20094;-68
2022/09/02 02:45:39;;;;;;;0.50;0.50;;;22.80;99.90;;;;;;1042966;28;20021;-68
2022/09/02 02:46:10;;;;;;;0.73;0.47;;;22.80;99.90;;;;;;1043086;28;20001;-69
2022/09/02 02:46:41;;;;;;;0.77;0.60;;;22.80;99.90;;;;;;1043195;28;20021;-69
2022/09/02 02:47:12;;;;;;;2.10;0.60;;;22.80;99.90;;;;;;1039134;28;20112;-69